sensor_id;sensor_type;location;lat;lon;timestamp;P1;durP1;ratioP1;P2;durP2;ratioP2
66667;SDS011;57205;51.438;-2.006;2023-05-10T00:01:16;16.63;;;7.68;;
66667;SDS011;57205;51.438;-2.006;2023-05-10T00:03:41;20.52;;;7.80;;
66667;SDS011;57205;51.438;-2.006;2023-05-10T00:06:07;18.45;;;7.93;;
66667;SDS011;57205;51.438;-2.006;2023-05-10T00:08:32;24.48;;;8.85;;
66667;SDS011;57205;51.438;-2.006;2023-05-10T00:10:57;19.75;;;9.07;;
66667;SDS011;57205;51.438;-2.006;2023-05-10T00:13:23;21.30;;;7.97;;
66667;SDS011;57205;51.438;-2.006;2023-05-10T00:15:48;21.27;;;8.20;;
66667;SDS011;57205;51.438;-2.006;2023-05-10T00:18:14;20.88;;;9.30;;
66667;SDS011;57205;51.438;-2.006;2023-05-10T00:20:39;28.65;;;7.40;;
66667;SDS011;57205;51.438;-2.006;2023-05-10T00:23:04;18.35;;;8.00;;
66667;SDS011;57205;51.438;-2.006;2023-05-10T00:25:30;21.40;;;8.55;;
66667;SDS011;57205;51.438;-2.006;2023-05-10T00:27:55;25.77;;;8.32;;
66667;SDS011;57205;51.438;-2.006;2023-05-10T00:30:22;20.95;;;7.85;;
66667;SDS011;57205;51.438;-2.006;2023-05-10T00:32:47;24.75;;;8.43;;
66667;SDS011;57205;51.438;-2.006;2023-05-10T00:35:14;16.92;;;7.45;;
66667;SDS011;57205;51.438;-2.006;2023-05-10T00:37:40;22.50;;;9.30;;
66667;SDS011;57205;51.438;-2.006;2023-05-10T00:40:06;20.40;;;8.05;;
66667;SDS011;57205;51.438;-2.006;2023-05-10T00:42:32;18.50;;;7.30;;
66667;SDS011;57205;51.438;-2.006;2023-05-10T00:44:57;15.55;;;7.22;;
66667;SDS011;57205;51.438;-2.006;2023-05-10T00:47:23;24.35;;;8.23;;
66667;SDS011;57205;51.438;-2.006;2023-05-10T00:49:48;20.17;;;7.97;;
66667;SDS011;57205;51.438;-2.006;2023-05-10T00:52:14;19.02;;;7.53;;
66667;SDS011;57205;51.438;-2.006;2023-05-10T00:54:40;20.17;;;7.45;;
66667;SDS011;57205;51.438;-2.006;2023-05-10T00:57:06;21.75;;;7.57;;
66667;SDS011;57205;51.438;-2.006;2023-05-10T00:59:32;22.58;;;7.32;;
66667;SDS011;57205;51.438;-2.006;2023-05-10T01:01:58;24.25;;;7.43;;
66667;SDS011;57205;51.438;-2.006;2023-05-10T01:04:23;21.15;;;7.95;;
66667;SDS011;57205;51.438;-2.006;2023-05-10T01:06:50;25.90;;;7.53;;
66667;SDS011;57205;51.438;-2.006;2023-05-10T01:09:16;24.25;;;9.60;;
66667;SDS011;57205;51.438;-2.006;2023-05-10T01:11:43;27.20;;;9.18;;
66667;SDS011;57205;51.438;-2.006;2023-05-10T01:14:08;15.73;;;8.73;;
66667;SDS011;57205;51.438;-2.006;2023-05-10T01:16:36;27.08;;;9.68;;
66667;SDS011;57205;51.438;-2.006;2023-05-10T01:19:06;24.90;;;10.95;;
66667;SDS011;57205;51.438;-2.006;2023-05-10T01:35:23;35.53;;;13.15;;
66667;SDS011;57205;51.438;-2.006;2023-05-10T01:43:28;34.53;;;13.65;;
66667;SDS011;57205;51.438;-2.006;2023-05-10T01:48:45;33.65;;;13.48;;
66667;SDS011;57205;51.438;-2.006;2023-05-10T01:51:17;33.28;;;13.45;;
66667;SDS011;57205;51.438;-2.006;2023-05-10T01:53:46;31.63;;;13.25;;
66667;SDS011;57205;51.438;-2.006;2023-05-10T01:56:13;25.38;;;12.50;;
66667;SDS011;57205;51.438;-2.006;2023-05-10T01:58:40;31.63;;;15.10;;
66667;SDS011;57205;51.438;-2.006;2023-05-10T02:01:10;34.33;;;14.45;;
66667;SDS011;57205;51.438;-2.006;2023-05-10T02:03:37;26.73;;;13.20;;
66667;SDS011;57205;51.438;-2.006;2023-05-10T02:06:05;34.03;;;14.50;;
66667;SDS011;57205;51.438;-2.006;2023-05-10T02:08:31;33.78;;;13.45;;
66667;SDS011;57205;51.438;-2.006;2023-05-10T02:11:00;30.98;;;12.93;;
66667;SDS011;57205;51.438;-2.006;2023-05-10T02:13:27;31.17;;;14.82;;
66667;SDS011;57205;51.438;-2.006;2023-05-10T02:15:54;34.17;;;13.27;;
66667;SDS011;57205;51.438;-2.006;2023-05-10T02:18:22;30.13;;;14.73;;
66667;SDS011;57205;51.438;-2.006;2023-05-10T02:20:50;32.78;;;15.27;;
66667;SDS011;57205;51.438;-2.006;2023-05-10T02:23:19;35.72;;;14.43;;
66667;SDS011;57205;51.438;-2.006;2023-05-10T02:25:45;31.95;;;14.98;;
66667;SDS011;57205;51.438;-2.006;2023-05-10T02:28:12;35.67;;;15.02;;
66667;SDS011;57205;51.438;-2.006;2023-05-10T02:30:40;36.55;;;16.23;;
66667;SDS011;57205;51.438;-2.006;2023-05-10T02:33:06;37.92;;;14.25;;
66667;SDS011;57205;51.438;-2.006;2023-05-10T02:35:33;39.55;;;16.98;;
66667;SDS011;57205;51.438;-2.006;2023-05-10T02:38:00;32.97;;;14.95;;
66667;SDS011;57205;51.438;-2.006;2023-05-10T02:40:26;31.50;;;14.52;;
66667;SDS011;57205;51.438;-2.006;2023-05-10T02:42:54;35.13;;;16.70;;
66667;SDS011;57205;51.438;-2.006;2023-05-10T02:45:22;33.35;;;15.70;;
66667;SDS011;57205;51.438;-2.006;2023-05-10T02:47:51;34.70;;;16.13;;
66667;SDS011;57205;51.438;-2.006;2023-05-10T02:50:17;35.25;;;16.77;;
66667;SDS011;57205;51.438;-2.006;2023-05-10T02:52:47;37.88;;;15.45;;
66667;SDS011;57205;51.438;-2.006;2023-05-10T02:55:19;34.22;;;16.50;;
66667;SDS011;57205;51.438;-2.006;2023-05-10T02:58:05;36.70;;;15.10;;
66667;SDS011;57205;51.438;-2.006;2023-05-10T03:00:30;33.93;;;15.37;;
66667;SDS011;57205;51.438;-2.006;2023-05-10T03:02:56;30.23;;;14.20;;
66667;SDS011;57205;51.438;-2.006;2023-05-10T03:05:22;33.58;;;15.98;;
66667;SDS011;57205;51.438;-2.006;2023-05-10T03:07:48;33.40;;;16.00;;
66667;SDS011;57205;51.438;-2.006;2023-05-10T03:10:13;32.78;;;14.77;;
66667;SDS011;57205;51.438;-2.006;2023-05-10T03:20:42;33.92;;;16.33;;
66667;SDS011;57205;51.438;-2.006;2023-05-10T03:23:12;36.53;;;15.77;;
66667;SDS011;57205;51.438;-2.006;2023-05-10T03:25:45;29.60;;;14.82;;
66667;SDS011;57205;51.438;-2.006;2023-05-10T03:28:13;35.83;;;15.63;;
66667;SDS011;57205;51.438;-2.006;2023-05-10T03:30:40;33.40;;;15.45;;
66667;SDS011;57205;51.438;-2.006;2023-05-10T03:33:07;36.15;;;15.80;;
66667;SDS011;57205;51.438;-2.006;2023-05-10T03:35:33;33.67;;;14.68;;
66667;SDS011;57205;51.438;-2.006;2023-05-10T03:37:58;33.00;;;16.25;;
66667;SDS011;57205;51.438;-2.006;2023-05-10T03:40:24;34.10;;;15.88;;
66667;SDS011;57205;51.438;-2.006;2023-05-10T03:42:51;33.83;;;16.35;;
66667;SDS011;57205;51.438;-2.006;2023-05-10T03:45:16;33.65;;;16.63;;
66667;SDS011;57205;51.438;-2.006;2023-05-10T03:47:42;35.22;;;16.67;;
66667;SDS011;57205;51.438;-2.006;2023-05-10T03:50:07;36.08;;;16.33;;
66667;SDS011;57205;51.438;-2.006;2023-05-10T03:52:33;37.25;;;16.27;;
66667;SDS011;57205;51.438;-2.006;2023-05-10T03:54:58;38.75;;;17.75;;
66667;SDS011;57205;51.438;-2.006;2023-05-10T03:57:24;37.30;;;16.35;;
66667;SDS011;57205;51.438;-2.006;2023-05-10T03:59:49;31.77;;;16.42;;
66667;SDS011;57205;51.438;-2.006;2023-05-10T04:02:15;34.90;;;15.98;;
66667;SDS011;57205;51.438;-2.006;2023-05-10T04:04:40;33.05;;;16.55;;
66667;SDS011;57205;51.438;-2.006;2023-05-10T04:07:05;32.92;;;15.65;;
66667;SDS011;57205;51.438;-2.006;2023-05-10T04:09:31;33.08;;;15.57;;
66667;SDS011;57205;51.438;-2.006;2023-05-10T04:11:58;29.67;;;14.88;;
66667;SDS011;57205;51.438;-2.006;2023-05-10T04:14:25;30.95;;;15.30;;
66667;SDS011;57205;51.438;-2.006;2023-05-10T04:16:50;31.33;;;14.00;;
66667;SDS011;57205;51.438;-2.006;2023-05-10T04:19:16;29.58;;;14.95;;
66667;SDS011;57205;51.438;-2.006;2023-05-10T04:21:41;29.35;;;14.30;;
66667;SDS011;57205;51.438;-2.006;2023-05-10T04:24:07;31.05;;;13.38;;
66667;SDS011;57205;51.438;-2.006;2023-05-10T04:26:32;35.22;;;14.73;;
66667;SDS011;57205;51.438;-2.006;2023-05-10T04:28:57;28.25;;;13.63;;
66667;SDS011;57205;51.438;-2.006;2023-05-10T04:31:23;37.35;;;14.30;;
66667;SDS011;57205;51.438;-2.006;2023-05-10T04:33:48;29.70;;;13.18;;
66667;SDS011;57205;51.438;-2.006;2023-05-10T04:36:14;26.85;;;13.00;;
66667;SDS011;57205;51.438;-2.006;2023-05-10T04:38:40;23.65;;;12.38;;
66667;SDS011;57205;51.438;-2.006;2023-05-10T04:41:06;24.25;;;12.20;;
66667;SDS011;57205;51.438;-2.006;2023-05-10T04:43:32;24.05;;;12.68;;
66667;SDS011;57205;51.438;-2.006;2023-05-10T04:45:58;31.05;;;12.20;;
66667;SDS011;57205;51.438;-2.006;2023-05-10T04:48:24;27.05;;;12.95;;
66667;SDS011;57205;51.438;-2.006;2023-05-10T04:50:49;21.98;;;11.88;;
66667;SDS011;57205;51.438;-2.006;2023-05-10T04:53:15;24.92;;;11.52;;
66667;SDS011;57205;51.438;-2.006;2023-05-10T04:55:40;31.58;;;12.90;;
66667;SDS011;57205;51.438;-2.006;2023-05-10T04:58:06;31.63;;;11.52;;
66667;SDS011;57205;51.438;-2.006;2023-05-10T05:00:32;27.15;;;11.45;;
66667;SDS011;57205;51.438;-2.006;2023-05-10T05:02:58;31.15;;;11.07;;
66667;SDS011;57205;51.438;-2.006;2023-05-10T05:05:24;30.55;;;11.38;;
66667;SDS011;57205;51.438;-2.006;2023-05-10T05:07:50;24.95;;;11.63;;
66667;SDS011;57205;51.438;-2.006;2023-05-10T05:10:16;25.50;;;11.50;;
66667;SDS011;57205;51.438;-2.006;2023-05-10T05:12:41;27.23;;;11.35;;
66667;SDS011;57205;51.438;-2.006;2023-05-10T05:15:07;30.75;;;11.13;;
66667;SDS011;57205;51.438;-2.006;2023-05-10T05:17:34;23.48;;;10.55;;
66667;SDS011;57205;51.438;-2.006;2023-05-10T05:19:59;27.52;;;11.18;;
66667;SDS011;57205;51.438;-2.006;2023-05-10T05:22:25;28.55;;;10.60;;
66667;SDS011;57205;51.438;-2.006;2023-05-10T05:24:56;24.23;;;10.40;;
66667;SDS011;57205;51.438;-2.006;2023-05-10T05:27:23;24.02;;;11.20;;
66667;SDS011;57205;51.438;-2.006;2023-05-10T05:29:52;27.42;;;10.13;;
66667;SDS011;57205;51.438;-2.006;2023-05-10T05:32:18;27.80;;;10.35;;
66667;SDS011;57205;51.438;-2.006;2023-05-10T05:34:46;21.08;;;9.57;;
66667;SDS011;57205;51.438;-2.006;2023-05-10T05:37:15;26.05;;;9.75;;
66667;SDS011;57205;51.438;-2.006;2023-05-10T05:39:42;24.75;;;9.07;;
66667;SDS011;57205;51.438;-2.006;2023-05-10T05:42:08;22.23;;;9.65;;
66667;SDS011;57205;51.438;-2.006;2023-05-10T05:44:34;28.95;;;9.25;;
66667;SDS011;57205;51.438;-2.006;2023-05-10T05:46:59;29.65;;;12.70;;
66667;SDS011;57205;51.438;-2.006;2023-05-10T05:49:25;23.45;;;9.68;;
66667;SDS011;57205;51.438;-2.006;2023-05-10T05:54:35;26.10;;;10.65;;
66667;SDS011;57205;51.438;-2.006;2023-05-10T05:57:01;20.42;;;8.52;;
66667;SDS011;57205;51.438;-2.006;2023-05-10T05:59:26;20.70;;;8.60;;
66667;SDS011;57205;51.438;-2.006;2023-05-10T06:01:52;19.30;;;8.52;;
66667;SDS011;57205;51.438;-2.006;2023-05-10T06:04:17;19.75;;;7.45;;
66667;SDS011;57205;51.438;-2.006;2023-05-10T06:06:43;20.52;;;6.80;;
66667;SDS011;57205;51.438;-2.006;2023-05-10T06:09:08;18.88;;;6.47;;
66667;SDS011;57205;51.438;-2.006;2023-05-10T06:11:34;18.27;;;7.13;;
66667;SDS011;57205;51.438;-2.006;2023-05-10T06:14:00;17.48;;;7.18;;
66667;SDS011;57205;51.438;-2.006;2023-05-10T06:16:26;12.40;;;6.40;;
66667;SDS011;57205;51.438;-2.006;2023-05-10T06:18:52;17.63;;;6.15;;
66667;SDS011;57205;51.438;-2.006;2023-05-10T06:21:18;26.52;;;13.45;;
66667;SDS011;57205;51.438;-2.006;2023-05-10T06:23:43;16.30;;;6.45;;
66667;SDS011;57205;51.438;-2.006;2023-05-10T06:26:09;13.45;;;6.40;;
66667;SDS011;57205;51.438;-2.006;2023-05-10T06:28:35;17.42;;;6.22;;
66667;SDS011;57205;51.438;-2.006;2023-05-10T06:31:02;15.95;;;6.65;;
66667;SDS011;57205;51.438;-2.006;2023-05-10T06:33:28;14.93;;;6.40;;
66667;SDS011;57205;51.438;-2.006;2023-05-10T06:35:53;15.70;;;6.20;;
66667;SDS011;57205;51.438;-2.006;2023-05-10T06:38:19;15.70;;;7.05;;
66667;SDS011;57205;51.438;-2.006;2023-05-10T06:40:44;13.48;;;7.20;;
66667;SDS011;57205;51.438;-2.006;2023-05-10T06:43:10;13.15;;;6.63;;
66667;SDS011;57205;51.438;-2.006;2023-05-10T06:45:35;13.20;;;6.03;;
66667;SDS011;57205;51.438;-2.006;2023-05-10T06:48:01;14.45;;;6.40;;
66667;SDS011;57205;51.438;-2.006;2023-05-10T06:50:28;13.23;;;6.38;;
66667;SDS011;57205;51.438;-2.006;2023-05-10T06:52:53;17.35;;;7.00;;
66667;SDS011;57205;51.438;-2.006;2023-05-10T06:55:20;20.60;;;7.88;;
66667;SDS011;57205;51.438;-2.006;2023-05-10T06:57:47;19.63;;;7.10;;
66667;SDS011;57205;51.438;-2.006;2023-05-10T07:00:13;16.63;;;7.35;;
66667;SDS011;57205;51.438;-2.006;2023-05-10T07:02:39;16.23;;;6.82;;
66667;SDS011;57205;51.438;-2.006;2023-05-10T07:05:04;20.17;;;7.35;;
66667;SDS011;57205;51.438;-2.006;2023-05-10T07:07:30;20.27;;;7.28;;
66667;SDS011;57205;51.438;-2.006;2023-05-10T07:09:56;14.82;;;6.18;;
66667;SDS011;57205;51.438;-2.006;2023-05-10T07:12:22;16.73;;;6.70;;
66667;SDS011;57205;51.438;-2.006;2023-05-10T07:14:48;15.32;;;5.97;;
66667;SDS011;57205;51.438;-2.006;2023-05-10T07:17:14;12.63;;;5.60;;
66667;SDS011;57205;51.438;-2.006;2023-05-10T07:19:39;11.27;;;5.00;;
66667;SDS011;57205;51.438;-2.006;2023-05-10T07:22:05;15.50;;;6.50;;
66667;SDS011;57205;51.438;-2.006;2023-05-10T07:24:31;14.20;;;5.85;;
66667;SDS011;57205;51.438;-2.006;2023-05-10T07:26:57;12.50;;;5.65;;
66667;SDS011;57205;51.438;-2.006;2023-05-10T07:29:22;12.15;;;5.55;;
66667;SDS011;57205;51.438;-2.006;2023-05-10T07:31:48;22.65;;;6.15;;
66667;SDS011;57205;51.438;-2.006;2023-05-10T07:34:13;16.73;;;5.50;;
66667;SDS011;57205;51.438;-2.006;2023-05-10T07:36:38;18.67;;;6.10;;
66667;SDS011;57205;51.438;-2.006;2023-05-10T07:39:04;18.50;;;6.13;;
66667;SDS011;57205;51.438;-2.006;2023-05-10T07:41:29;17.23;;;6.15;;
66667;SDS011;57205;51.438;-2.006;2023-05-10T07:44:04;10.30;;;4.32;;
66667;SDS011;57205;51.438;-2.006;2023-05-10T07:46:31;10.93;;;4.10;;
66667;SDS011;57205;51.438;-2.006;2023-05-10T07:48:56;13.77;;;4.18;;
66667;SDS011;57205;51.438;-2.006;2023-05-10T07:51:22;16.95;;;4.85;;
66667;SDS011;57205;51.438;-2.006;2023-05-10T07:53:47;14.52;;;3.72;;
66667;SDS011;57205;51.438;-2.006;2023-05-10T07:56:20;15.73;;;3.90;;
66667;SDS011;57205;51.438;-2.006;2023-05-10T07:58:54;14.32;;;4.00;;
66667;SDS011;57205;51.438;-2.006;2023-05-10T08:01:20;19.17;;;3.95;;
66667;SDS011;57205;51.438;-2.006;2023-05-10T08:03:46;13.30;;;3.80;;
66667;SDS011;57205;51.438;-2.006;2023-05-10T08:06:12;24.33;;;12.52;;
66667;SDS011;57205;51.438;-2.006;2023-05-10T08:08:38;14.93;;;3.47;;
66667;SDS011;57205;51.438;-2.006;2023-05-10T08:11:03;14.98;;;3.80;;
66667;SDS011;57205;51.438;-2.006;2023-05-10T08:13:29;11.43;;;3.13;;
66667;SDS011;57205;51.438;-2.006;2023-05-10T08:15:54;12.98;;;3.40;;
66667;SDS011;57205;51.438;-2.006;2023-05-10T08:18:20;12.10;;;3.72;;
66667;SDS011;57205;51.438;-2.006;2023-05-10T08:20:46;15.50;;;3.75;;
66667;SDS011;57205;51.438;-2.006;2023-05-10T08:23:14;12.98;;;3.75;;
66667;SDS011;57205;51.438;-2.006;2023-05-10T08:25:39;14.80;;;3.63;;
66667;SDS011;57205;51.438;-2.006;2023-05-10T08:28:05;18.58;;;3.45;;
66667;SDS011;57205;51.438;-2.006;2023-05-10T08:30:30;10.95;;;3.03;;
66667;SDS011;57205;51.438;-2.006;2023-05-10T08:32:56;15.02;;;3.63;;
66667;SDS011;57205;51.438;-2.006;2023-05-10T08:35:21;17.65;;;3.78;;
66667;SDS011;57205;51.438;-2.006;2023-05-10T08:37:47;17.75;;;4.90;;
66667;SDS011;57205;51.438;-2.006;2023-05-10T08:40:12;8.82;;;2.70;;
66667;SDS011;57205;51.438;-2.006;2023-05-10T08:42:40;11.80;;;3.15;;
66667;SDS011;57205;51.438;-2.006;2023-05-10T08:45:12;18.27;;;3.83;;
66667;SDS011;57205;51.438;-2.006;2023-05-10T08:47:41;11.88;;;3.63;;
66667;SDS011;57205;51.438;-2.006;2023-05-10T08:50:07;11.25;;;3.28;;
66667;SDS011;57205;51.438;-2.006;2023-05-10T08:52:33;15.88;;;3.58;;
66667;SDS011;57205;51.438;-2.006;2023-05-10T08:55:03;10.63;;;3.08;;
66667;SDS011;57205;51.438;-2.006;2023-05-10T08:57:29;12.77;;;2.95;;
66667;SDS011;57205;51.438;-2.006;2023-05-10T08:59:54;8.40;;;2.53;;
66667;SDS011;57205;51.438;-2.006;2023-05-10T09:02:20;21.90;;;4.07;;
66667;SDS011;57205;51.438;-2.006;2023-05-10T09:04:46;13.65;;;3.83;;
66667;SDS011;57205;51.438;-2.006;2023-05-10T09:07:11;10.82;;;3.40;;
66667;SDS011;57205;51.438;-2.006;2023-05-10T09:09:37;10.20;;;3.17;;
66667;SDS011;57205;51.438;-2.006;2023-05-10T09:12:03;10.13;;;3.05;;
66667;SDS011;57205;51.438;-2.006;2023-05-10T09:14:29;7.85;;;2.58;;
66667;SDS011;57205;51.438;-2.006;2023-05-10T09:16:55;13.43;;;3.30;;
66667;SDS011;57205;51.438;-2.006;2023-05-10T09:19:21;9.20;;;3.03;;
66667;SDS011;57205;51.438;-2.006;2023-05-10T09:21:46;8.57;;;3.00;;
66667;SDS011;57205;51.438;-2.006;2023-05-10T09:24:12;11.93;;;3.40;;
66667;SDS011;57205;51.438;-2.006;2023-05-10T09:26:45;10.27;;;3.92;;
66667;SDS011;57205;51.438;-2.006;2023-05-10T09:29:12;15.52;;;4.75;;
66667;SDS011;57205;51.438;-2.006;2023-05-10T09:31:48;8.43;;;3.08;;
66667;SDS011;57205;51.438;-2.006;2023-05-10T09:34:31;8.55;;;3.05;;
66667;SDS011;57205;51.438;-2.006;2023-05-10T09:37:01;7.38;;;2.50;;
66667;SDS011;57205;51.438;-2.006;2023-05-10T09:39:34;8.75;;;2.60;;
66667;SDS011;57205;51.438;-2.006;2023-05-10T09:44:28;10.02;;;2.72;;
66667;SDS011;57205;51.438;-2.006;2023-05-10T09:46:54;9.60;;;2.85;;
66667;SDS011;57205;51.438;-2.006;2023-05-10T09:49:20;8.38;;;2.78;;
66667;SDS011;57205;51.438;-2.006;2023-05-10T09:51:46;10.55;;;2.65;;
66667;SDS011;57205;51.438;-2.006;2023-05-10T09:54:13;10.55;;;3.30;;
66667;SDS011;57205;51.438;-2.006;2023-05-10T09:56:40;15.20;;;3.60;;
66667;SDS011;57205;51.438;-2.006;2023-05-10T09:59:06;11.00;;;3.10;;
66667;SDS011;57205;51.438;-2.006;2023-05-10T10:01:36;13.38;;;3.08;;
66667;SDS011;57205;51.438;-2.006;2023-05-10T10:04:03;9.43;;;3.45;;
66667;SDS011;57205;51.438;-2.006;2023-05-10T10:06:34;7.97;;;3.00;;
66667;SDS011;57205;51.438;-2.006;2023-05-10T10:09:01;12.35;;;3.40;;
66667;SDS011;57205;51.438;-2.006;2023-05-10T10:11:28;11.27;;;2.88;;
66667;SDS011;57205;51.438;-2.006;2023-05-10T10:13:54;8.48;;;3.20;;
66667;SDS011;57205;51.438;-2.006;2023-05-10T10:16:20;11.30;;;2.70;;
66667;SDS011;57205;51.438;-2.006;2023-05-10T10:18:46;8.88;;;2.63;;
66667;SDS011;57205;51.438;-2.006;2023-05-10T10:21:13;7.40;;;2.80;;
66667;SDS011;57205;51.438;-2.006;2023-05-10T10:23:38;13.63;;;3.08;;
66667;SDS011;57205;51.438;-2.006;2023-05-10T10:26:04;10.77;;;3.03;;
66667;SDS011;57205;51.438;-2.006;2023-05-10T10:28:36;12.90;;;3.40;;
66667;SDS011;57205;51.438;-2.006;2023-05-10T10:33:51;8.52;;;3.13;;
66667;SDS011;57205;51.438;-2.006;2023-05-10T10:36:39;10.25;;;3.00;;
66667;SDS011;57205;51.438;-2.006;2023-05-10T10:39:12;14.02;;;3.00;;
66667;SDS011;57205;51.438;-2.006;2023-05-10T10:41:52;13.18;;;3.67;;
66667;SDS011;57205;51.438;-2.006;2023-05-10T10:49:48;7.50;;;3.00;;
66667;SDS011;57205;51.438;-2.006;2023-05-10T10:52:21;11.90;;;3.13;;
66667;SDS011;57205;51.438;-2.006;2023-05-10T10:57:25;9.10;;;2.92;;
66667;SDS011;57205;51.438;-2.006;2023-05-10T10:59:51;15.32;;;2.95;;
66667;SDS011;57205;51.438;-2.006;2023-05-10T11:08:13;13.07;;;2.72;;
66667;SDS011;57205;51.438;-2.006;2023-05-10T11:10:49;9.30;;;2.15;;
66667;SDS011;57205;51.438;-2.006;2023-05-10T11:16:14;9.38;;;2.35;;
66667;SDS011;57205;51.438;-2.006;2023-05-10T11:18:53;14.70;;;3.00;;
66667;SDS011;57205;51.438;-2.006;2023-05-10T11:21:27;9.68;;;2.75;;
66667;SDS011;57205;51.438;-2.006;2023-05-10T11:23:57;9.88;;;2.38;;
66667;SDS011;57205;51.438;-2.006;2023-05-10T11:26:25;22.35;;;3.10;;
66667;SDS011;57205;51.438;-2.006;2023-05-10T11:28:55;8.43;;;2.70;;
66667;SDS011;57205;51.438;-2.006;2023-05-10T11:31:21;11.23;;;3.08;;
66667;SDS011;57205;51.438;-2.006;2023-05-10T11:36:18;8.30;;;2.65;;
66667;SDS011;57205;51.438;-2.006;2023-05-10T11:38:50;14.32;;;2.75;;
66667;SDS011;57205;51.438;-2.006;2023-05-10T11:41:17;11.38;;;2.70;;
66667;SDS011;57205;51.438;-2.006;2023-05-10T11:43:46;8.25;;;2.00;;
66667;SDS011;57205;51.438;-2.006;2023-05-10T11:46:14;11.38;;;2.85;;
66667;SDS011;57205;51.438;-2.006;2023-05-10T11:48:40;8.32;;;1.90;;
66667;SDS011;57205;51.438;-2.006;2023-05-10T11:51:06;8.23;;;1.88;;
66667;SDS011;57205;51.438;-2.006;2023-05-10T11:53:32;6.60;;;1.90;;
66667;SDS011;57205;51.438;-2.006;2023-05-10T11:56:08;5.88;;;1.80;;
66667;SDS011;57205;51.438;-2.006;2023-05-10T11:58:35;7.70;;;1.95;;
66667;SDS011;57205;51.438;-2.006;2023-05-10T12:01:02;11.55;;;2.60;;
66667;SDS011;57205;51.438;-2.006;2023-05-10T12:03:29;8.40;;;2.22;;
66667;SDS011;57205;51.438;-2.006;2023-05-10T12:05:56;7.60;;;1.88;;
66667;SDS011;57205;51.438;-2.006;2023-05-10T12:08:23;9.82;;;2.70;;
66667;SDS011;57205;51.438;-2.006;2023-05-10T12:10:50;12.32;;;3.25;;
66667;SDS011;57205;51.438;-2.006;2023-05-10T12:13:16;10.00;;;2.70;;
66667;SDS011;57205;51.438;-2.006;2023-05-10T12:15:43;9.27;;;2.17;;
66667;SDS011;57205;51.438;-2.006;2023-05-10T12:18:09;18.90;;;8.70;;
66667;SDS011;57205;51.438;-2.006;2023-05-10T12:20:36;7.90;;;1.90;;
66667;SDS011;57205;51.438;-2.006;2023-05-10T12:23:02;9.27;;;2.50;;
66667;SDS011;57205;51.438;-2.006;2023-05-10T12:25:32;8.13;;;2.53;;
66667;SDS011;57205;51.438;-2.006;2023-05-10T12:27:59;7.07;;;2.45;;
66667;SDS011;57205;51.438;-2.006;2023-05-10T12:30:28;4.60;;;1.48;;
66667;SDS011;57205;51.438;-2.006;2023-05-10T12:32:59;10.15;;;2.33;;
66667;SDS011;57205;51.438;-2.006;2023-05-10T12:35:26;7.95;;;1.90;;
66667;SDS011;57205;51.438;-2.006;2023-05-10T12:37:56;3.35;;;1.17;;
66667;SDS011;57205;51.438;-2.006;2023-05-10T12:40:24;5.28;;;1.60;;
66667;SDS011;57205;51.438;-2.006;2023-05-10T12:42:54;4.30;;;1.50;;
66667;SDS011;57205;51.438;-2.006;2023-05-10T12:45:20;6.85;;;1.58;;
66667;SDS011;57205;51.438;-2.006;2023-05-10T12:47:45;8.55;;;2.83;;
66667;SDS011;57205;51.438;-2.006;2023-05-10T12:50:11;5.38;;;1.33;;
66667;SDS011;57205;51.438;-2.006;2023-05-10T12:52:36;6.88;;;2.03;;
66667;SDS011;57205;51.438;-2.006;2023-05-10T12:55:02;5.18;;;1.33;;
66667;SDS011;57205;51.438;-2.006;2023-05-10T12:57:28;8.05;;;1.83;;
66667;SDS011;57205;51.438;-2.006;2023-05-10T12:59:53;10.45;;;1.77;;
66667;SDS011;57205;51.438;-2.006;2023-05-10T13:02:19;4.75;;;1.30;;
66667;SDS011;57205;51.438;-2.006;2023-05-10T13:04:46;11.45;;;2.38;;
66667;SDS011;57205;51.438;-2.006;2023-05-10T13:07:12;5.38;;;1.40;;
66667;SDS011;57205;51.438;-2.006;2023-05-10T13:09:37;11.20;;;3.90;;
66667;SDS011;57205;51.438;-2.006;2023-05-10T13:12:03;10.10;;;3.00;;
66667;SDS011;57205;51.438;-2.006;2023-05-10T13:14:29;9.95;;;2.10;;
66667;SDS011;57205;51.438;-2.006;2023-05-10T13:16:55;7.72;;;2.30;;
66667;SDS011;57205;51.438;-2.006;2023-05-10T13:19:20;7.68;;;1.67;;
66667;SDS011;57205;51.438;-2.006;2023-05-10T13:21:46;3.90;;;1.50;;
66667;SDS011;57205;51.438;-2.006;2023-05-10T13:24:11;9.00;;;1.95;;
66667;SDS011;57205;51.438;-2.006;2023-05-10T13:26:39;5.40;;;1.65;;
66667;SDS011;57205;51.438;-2.006;2023-05-10T13:29:05;7.32;;;1.58;;
66667;SDS011;57205;51.438;-2.006;2023-05-10T13:31:30;8.32;;;2.20;;
66667;SDS011;57205;51.438;-2.006;2023-05-10T13:33:56;5.82;;;1.13;;
66667;SDS011;57205;51.438;-2.006;2023-05-10T13:36:21;6.70;;;1.40;;
66667;SDS011;57205;51.438;-2.006;2023-05-10T13:38:47;3.50;;;1.10;;
66667;SDS011;57205;51.438;-2.006;2023-05-10T13:41:13;4.55;;;1.23;;
66667;SDS011;57205;51.438;-2.006;2023-05-10T13:43:38;4.50;;;1.10;;
66667;SDS011;57205;51.438;-2.006;2023-05-10T13:46:04;4.97;;;1.27;;
66667;SDS011;57205;51.438;-2.006;2023-05-10T13:48:29;6.18;;;1.58;;
66667;SDS011;57205;51.438;-2.006;2023-05-10T13:50:54;6.22;;;1.35;;
66667;SDS011;57205;51.438;-2.006;2023-05-10T13:53:20;10.57;;;1.58;;
66667;SDS011;57205;51.438;-2.006;2023-05-10T13:55:46;3.88;;;1.23;;
66667;SDS011;57205;51.438;-2.006;2023-05-10T13:58:12;5.32;;;1.20;;
66667;SDS011;57205;51.438;-2.006;2023-05-10T14:00:37;7.45;;;1.25;;
66667;SDS011;57205;51.438;-2.006;2023-05-10T14:03:02;5.32;;;1.40;;
66667;SDS011;57205;51.438;-2.006;2023-05-10T14:05:29;3.80;;;0.95;;
66667;SDS011;57205;51.438;-2.006;2023-05-10T14:07:56;2.17;;;0.80;;
66667;SDS011;57205;51.438;-2.006;2023-05-10T14:10:22;4.15;;;1.27;;
66667;SDS011;57205;51.438;-2.006;2023-05-10T14:12:47;13.18;;;4.88;;
66667;SDS011;57205;51.438;-2.006;2023-05-10T14:15:13;2.75;;;1.00;;
66667;SDS011;57205;51.438;-2.006;2023-05-10T14:17:38;3.55;;;1.02;;
66667;SDS011;57205;51.438;-2.006;2023-05-10T14:20:03;2.55;;;0.77;;
66667;SDS011;57205;51.438;-2.006;2023-05-10T14:22:29;6.15;;;0.98;;
66667;SDS011;57205;51.438;-2.006;2023-05-10T14:24:55;2.45;;;1.00;;
66667;SDS011;57205;51.438;-2.006;2023-05-10T14:27:20;4.82;;;1.20;;
66667;SDS011;57205;51.438;-2.006;2023-05-10T14:29:47;4.70;;;1.40;;
66667;SDS011;57205;51.438;-2.006;2023-05-10T14:32:12;3.38;;;0.85;;
66667;SDS011;57205;51.438;-2.006;2023-05-10T14:34:38;5.13;;;1.20;;
66667;SDS011;57205;51.438;-2.006;2023-05-10T14:37:03;5.57;;;1.27;;
66667;SDS011;57205;51.438;-2.006;2023-05-10T14:39:29;1.55;;;0.80;;
66667;SDS011;57205;51.438;-2.006;2023-05-10T14:41:55;4.15;;;0.90;;
66667;SDS011;57205;51.438;-2.006;2023-05-10T14:44:21;6.18;;;1.27;;
66667;SDS011;57205;51.438;-2.006;2023-05-10T14:46:46;8.60;;;1.33;;
66667;SDS011;57205;51.438;-2.006;2023-05-10T14:49:16;3.70;;;0.98;;
66667;SDS011;57205;51.438;-2.006;2023-05-10T14:51:41;4.45;;;0.90;;
66667;SDS011;57205;51.438;-2.006;2023-05-10T14:54:07;4.28;;;0.77;;
66667;SDS011;57205;51.438;-2.006;2023-05-10T14:56:32;4.47;;;1.00;;
66667;SDS011;57205;51.438;-2.006;2023-05-10T14:58:58;2.17;;;0.68;;
66667;SDS011;57205;51.438;-2.006;2023-05-10T15:01:24;3.05;;;0.50;;
66667;SDS011;57205;51.438;-2.006;2023-05-10T15:03:50;2.80;;;1.00;;
66667;SDS011;57205;51.438;-2.006;2023-05-10T15:06:15;2.83;;;0.70;;
66667;SDS011;57205;51.438;-2.006;2023-05-10T15:08:41;2.47;;;0.50;;
66667;SDS011;57205;51.438;-2.006;2023-05-10T15:11:06;1.52;;;0.63;;
66667;SDS011;57205;51.438;-2.006;2023-05-10T15:13:32;2.13;;;0.60;;
66667;SDS011;57205;51.438;-2.006;2023-05-10T15:15:57;3.97;;;0.70;;